sensor_id;sensor_type;location;lat;lon;timestamp;temperature;humidity
8103;DHT22;4094;49.948;11.574;2022-07-05T00:01:15;24.30;41.10
8103;DHT22;4094;49.948;11.574;2022-07-05T00:03:44;24.30;41.00
8103;DHT22;4094;49.948;11.574;2022-07-05T00:06:14;24.30;41.30
8103;DHT22;4094;49.948;11.574;2022-07-05T00:08:43;24.20;41.10
8103;DHT22;4094;49.948;11.574;2022-07-05T00:11:12;24.20;41.10
8103;DHT22;4094;49.948;11.574;2022-07-05T00:13:42;24.20;40.90
8103;DHT22;4094;49.948;11.574;2022-07-05T00:16:11;24.20;40.90
8103;DHT22;4094;49.948;11.574;2022-07-05T00:18:41;24.20;40.90
8103;DHT22;4094;49.948;11.574;2022-07-05T00:21:11;24.20;41.20
8103;DHT22;4094;49.948;11.574;2022-07-05T00:23:40;24.20;41.10
8103;DHT22;4094;49.948;11.574;2022-07-05T00:26:09;24.10;41.10
8103;DHT22;4094;49.948;11.574;2022-07-05T00:28:38;24.10;41.30
8103;DHT22;4094;49.948;11.574;2022-07-05T00:31:08;24.10;41.00
8103;DHT22;4094;49.948;11.574;2022-07-05T00:33:37;24.10;41.50
8103;DHT22;4094;49.948;11.574;2022-07-05T00:36:07;24.10;41.30
8103;DHT22;4094;49.948;11.574;2022-07-05T00:38:36;24.10;41.20
8103;DHT22;4094;49.948;11.574;2022-07-05T00:41:05;24.00;41.30
8103;DHT22;4094;49.948;11.574;2022-07-05T00:43:34;24.00;41.50
8103;DHT22;4094;49.948;11.574;2022-07-05T00:46:04;24.00;41.20
8103;DHT22;4094;49.948;11.574;2022-07-05T00:48:34;24.00;41.30
8103;DHT22;4094;49.948;11.574;2022-07-05T00:51:04;23.90;41.10
8103;DHT22;4094;49.948;11.574;2022-07-05T00:53:33;23.90;41.90
8103;DHT22;4094;49.948;11.574;2022-07-05T00:56:03;23.90;41.70
8103;DHT22;4094;49.948;11.574;2022-07-05T00:58:33;23.90;41.30
8103;DHT22;4094;49.948;11.574;2022-07-05T01:01:03;23.80;41.40
8103;DHT22;4094;49.948;11.574;2022-07-05T01:03:35;23.80;41.60
8103;DHT22;4094;49.948;11.574;2022-07-05T01:06:06;23.80;41.60
8103;DHT22;4094;49.948;11.574;2022-07-05T01:08:42;23.80;41.70
8103;DHT22;4094;49.948;11.574;2022-07-05T01:11:13;23.80;41.40
8103;DHT22;4094;49.948;11.574;2022-07-05T01:13:42;23.70;41.10
8103;DHT22;4094;49.948;11.574;2022-07-05T01:16:13;23.70;41.20
8103;DHT22;4094;49.948;11.574;2022-07-05T01:18:44;23.70;41.00
8103;DHT22;4094;49.948;11.574;2022-07-05T01:21:15;23.60;41.10
8103;DHT22;4094;49.948;11.574;2022-07-05T01:23:50;23.60;41.80
8103;DHT22;4094;49.948;11.574;2022-07-05T01:26:19;23.50;41.40
8103;DHT22;4094;49.948;11.574;2022-07-05T01:28:48;23.50;41.80
8103;DHT22;4094;49.948;11.574;2022-07-05T01:31:17;23.50;41.50
8103;DHT22;4094;49.948;11.574;2022-07-05T01:33:46;23.50;41.40
8103;DHT22;4094;49.948;11.574;2022-07-05T01:36:15;23.50;41.40
8103;DHT22;4094;49.948;11.574;2022-07-05T01:38:45;23.40;41.60
8103;DHT22;4094;49.948;11.574;2022-07-05T01:41:16;23.40;41.30
8103;DHT22;4094;49.948;11.574;2022-07-05T01:43:45;23.40;41.50
8103;DHT22;4094;49.948;11.574;2022-07-05T01:46:15;23.30;41.40
8103;DHT22;4094;49.948;11.574;2022-07-05T01:48:46;23.30;41.40
8103;DHT22;4094;49.948;11.574;2022-07-05T01:51:21;23.30;41.40
8103;DHT22;4094;49.948;11.574;2022-07-05T01:53:52;23.20;41.40
8103;DHT22;4094;49.948;11.574;2022-07-05T01:56:23;23.20;41.40
8103;DHT22;4094;49.948;11.574;2022-07-05T01:58:52;23.20;41.40
8103;DHT22;4094;49.948;11.574;2022-07-05T02:01:32;23.10;41.40
8103;DHT22;4094;49.948;11.574;2022-07-05T02:04:03;23.10;41.70
8103;DHT22;4094;49.948;11.574;2022-07-05T02:06:32;23.10;41.90
8103;DHT22;4094;49.948;11.574;2022-07-05T02:09:05;23.10;42.00
8103;DHT22;4094;49.948;11.574;2022-07-05T02:11:36;23.00;42.10
8103;DHT22;4094;49.948;11.574;2022-07-05T02:14:06;23.00;41.70
8103;DHT22;4094;49.948;11.574;2022-07-05T02:16:38;23.00;41.60
8103;DHT22;4094;49.948;11.574;2022-07-05T02:19:08;23.00;41.60
8103;DHT22;4094;49.948;11.574;2022-07-05T02:21:40;23.00;41.50
8103;DHT22;4094;49.948;11.574;2022-07-05T02:24:14;22.90;41.70
8103;DHT22;4094;49.948;11.574;2022-07-05T02:26:55;22.90;41.70
8103;DHT22;4094;49.948;11.574;2022-07-05T02:29:24;22.80;41.70
8103;DHT22;4094;49.948;11.574;2022-07-05T02:31:54;22.70;41.70
8103;DHT22;4094;49.948;11.574;2022-07-05T02:34:24;22.70;41.90
8103;DHT22;4094;49.948;11.574;2022-07-05T02:36:53;22.60;42.00
8103;DHT22;4094;49.948;11.574;2022-07-05T02:39:23;22.60;42.70
8103;DHT22;4094;49.948;11.574;2022-07-05T02:41:56;22.50;42.40
8103;DHT22;4094;49.948;11.574;2022-07-05T02:44:26;22.40;42.50
8103;DHT22;4094;49.948;11.574;2022-07-05T02:46:55;22.40;42.50
8103;DHT22;4094;49.948;11.574;2022-07-05T02:49:26;22.30;42.60
8103;DHT22;4094;49.948;11.574;2022-07-05T02:51:55;22.20;42.80
8103;DHT22;4094;49.948;11.574;2022-07-05T02:54:25;22.20;42.80
8103;DHT22;4094;49.948;11.574;2022-07-05T02:56:57;22.00;42.90
8103;DHT22;4094;49.948;11.574;2022-07-05T02:59:27;22.00;43.10
8103;DHT22;4094;49.948;11.574;2022-07-05T03:01:58;21.90;43.30
8103;DHT22;4094;49.948;11.574;2022-07-05T03:04:28;21.90;43.50
8103;DHT22;4094;49.948;11.574;2022-07-05T03:06:58;21.80;43.70
8103;DHT22;4094;49.948;11.574;2022-07-05T03:09:30;21.80;43.60
8103;DHT22;4094;49.948;11.574;2022-07-05T03:12:04;21.80;43.60
8103;DHT22;4094;49.948;11.574;2022-07-05T03:14:34;21.70;43.60
8103;DHT22;4094;49.948;11.574;2022-07-05T03:17:03;21.70;43.70
8103;DHT22;4094;49.948;11.574;2022-07-05T03:19:33;21.60;43.70
8103;DHT22;4094;49.948;11.574;2022-07-05T03:22:03;21.60;43.80
8103;DHT22;4094;49.948;11.574;2022-07-05T03:24:34;21.50;43.90
8103;DHT22;4094;49.948;11.574;2022-07-05T03:27:06;21.50;44.00
8103;DHT22;4094;49.948;11.574;2022-07-05T03:29:37;21.40;44.10
8103;DHT22;4094;49.948;11.574;2022-07-05T03:32:06;21.40;44.30
8103;DHT22;4094;49.948;11.574;2022-07-05T03:34:36;21.40;44.30
8103;DHT22;4094;49.948;11.574;2022-07-05T03:37:08;21.30;44.70
8103;DHT22;4094;49.948;11.574;2022-07-05T03:39:37;21.30;44.90
8103;DHT22;4094;49.948;11.574;2022-07-05T03:42:08;21.30;45.00
8103;DHT22;4094;49.948;11.574;2022-07-05T03:44:37;21.30;45.00
8103;DHT22;4094;49.948;11.574;2022-07-05T03:47:06;21.30;45.00
8103;DHT22;4094;49.948;11.574;2022-07-05T03:49:36;21.30;45.10
8103;DHT22;4094;49.948;11.574;2022-07-05T03:52:05;21.20;45.10
8103;DHT22;4094;49.948;11.574;2022-07-05T03:54:34;21.20;45.00
8103;DHT22;4094;49.948;11.574;2022-07-05T03:57:07;21.20;45.00
8103;DHT22;4094;49.948;11.574;2022-07-05T03:59:37;21.20;45.30
8103;DHT22;4094;49.948;11.574;2022-07-05T04:02:06;21.20;45.10
8103;DHT22;4094;49.948;11.574;2022-07-05T04:04:35;21.20;45.10
8103;DHT22;4094;49.948;11.574;2022-07-05T04:07:04;21.20;45.90
8103;DHT22;4094;49.948;11.574;2022-07-05T04:09:34;21.20;45.30
8103;DHT22;4094;49.948;11.574;2022-07-05T04:12:05;21.20;45.50
8103;DHT22;4094;49.948;11.574;2022-07-05T04:14:36;21.20;45.40
8103;DHT22;4094;49.948;11.574;2022-07-05T04:17:05;21.20;45.30
8103;DHT22;4094;49.948;11.574;2022-07-05T04:19:36;21.10;45.30
8103;DHT22;4094;49.948;11.574;2022-07-05T04:22:06;21.10;45.40
8103;DHT22;4094;49.948;11.574;2022-07-05T04:24:36;21.10;45.40
8103;DHT22;4094;49.948;11.574;2022-07-05T04:27:25;21.10;45.50
8103;DHT22;4094;49.948;11.574;2022-07-05T04:29:56;21.10;45.50
8103;DHT22;4094;49.948;11.574;2022-07-05T04:32:25;21.10;45.50
8103;DHT22;4094;49.948;11.574;2022-07-05T04:34:54;21.10;45.60
8103;DHT22;4094;49.948;11.574;2022-07-05T04:37:24;21.10;45.70
8103;DHT22;4094;49.948;11.574;2022-07-05T04:39:53;21.10;45.80
8103;DHT22;4094;49.948;11.574;2022-07-05T04:42:22;21.10;46.10
8103;DHT22;4094;49.948;11.574;2022-07-05T04:44:51;21.10;46.00
8103;DHT22;4094;49.948;11.574;2022-07-05T04:47:22;21.10;46.20
8103;DHT22;4094;49.948;11.574;2022-07-05T04:49:54;21.10;46.20
8103;DHT22;4094;49.948;11.574;2022-07-05T04:52:25;21.20;46.50
8103;DHT22;4094;49.948;11.574;2022-07-05T04:54:54;21.20;46.20
8103;DHT22;4094;49.948;11.574;2022-07-05T04:57:23;21.20;46.20
8103;DHT22;4094;49.948;11.574;2022-07-05T04:59:53;21.30;46.20
8103;DHT22;4094;49.948;11.574;2022-07-05T05:02:24;21.30;46.20
8103;DHT22;4094;49.948;11.574;2022-07-05T05:04:53;21.40;46.00
8103;DHT22;4094;49.948;11.574;2022-07-05T05:07:23;21.40;45.90
8103;DHT22;4094;49.948;11.574;2022-07-05T05:09:52;21.40;45.70
8103;DHT22;4094;49.948;11.574;2022-07-05T05:12:21;21.50;45.70
8103;DHT22;4094;49.948;11.574;2022-07-05T05:14:51;21.50;45.70
8103;DHT22;4094;49.948;11.574;2022-07-05T05:17:20;21.60;45.60
8103;DHT22;4094;49.948;11.574;2022-07-05T05:19:51;21.60;45.70
8103;DHT22;4094;49.948;11.574;2022-07-05T05:22:20;21.60;45.60
8103;DHT22;4094;49.948;11.574;2022-07-05T05:24:50;21.70;45.30
8103;DHT22;4094;49.948;11.574;2022-07-05T05:27:19;21.70;45.30
8103;DHT22;4094;49.948;11.574;2022-07-05T05:29:48;21.70;45.40
8103;DHT22;4094;49.948;11.574;2022-07-05T05:32:17;21.80;45.10
8103;DHT22;4094;49.948;11.574;2022-07-05T05:34:46;21.80;44.90
8103;DHT22;4094;49.948;11.574;2022-07-05T05:37:17;21.80;44.70
8103;DHT22;4094;49.948;11.574;2022-07-05T05:39:46;21.90;44.90
8103;DHT22;4094;49.948;11.574;2022-07-05T05:42:17;21.90;44.90
8103;DHT22;4094;49.948;11.574;2022-07-05T05:44:46;22.00;45.00
8103;DHT22;4094;49.948;11.574;2022-07-05T05:47:15;22.00;45.00
8103;DHT22;4094;49.948;11.574;2022-07-05T05:49:45;22.10;44.90
8103;DHT22;4094;49.948;11.574;2022-07-05T05:52:15;22.20;45.00
8103;DHT22;4094;49.948;11.574;2022-07-05T05:54:45;22.30;44.90
8103;DHT22;4094;49.948;11.574;2022-07-05T05:57:15;22.30;45.00
8103;DHT22;4094;49.948;11.574;2022-07-05T05:59:44;22.40;44.80
8103;DHT22;4094;49.948;11.574;2022-07-05T06:02:17;22.50;44.60
8103;DHT22;4094;49.948;11.574;2022-07-05T06:04:46;22.60;44.80
8103;DHT22;4094;49.948;11.574;2022-07-05T06:07:15;22.60;44.30
8103;DHT22;4094;49.948;11.574;2022-07-05T06:09:46;22.70;44.20
8103;DHT22;4094;49.948;11.574;2022-07-05T06:12:21;22.80;44.10
8103;DHT22;4094;49.948;11.574;2022-07-05T06:14:55;22.90;43.60
8103;DHT22;4094;49.948;11.574;2022-07-05T06:17:24;23.00;43.60
8103;DHT22;4094;49.948;11.574;2022-07-05T06:19:53;23.00;43.20
8103;DHT22;4094;49.948;11.574;2022-07-05T06:22:22;23.10;44.50
8103;DHT22;4094;49.948;11.574;2022-07-05T06:25:02;23.10;44.20
8103;DHT22;4094;49.948;11.574;2022-07-05T06:27:50;23.20;44.20
8103;DHT22;4094;49.948;11.574;2022-07-05T06:30:22;23.30;44.00
8103;DHT22;4094;49.948;11.574;2022-07-05T06:32:51;23.40;43.90
8103;DHT22;4094;49.948;11.574;2022-07-05T06:35:22;23.50;43.70
8103;DHT22;4094;49.948;11.574;2022-07-05T06:37:53;23.60;43.60
8103;DHT22;4094;49.948;11.574;2022-07-05T06:40:24;23.60;43.50
8103;DHT22;4094;49.948;11.574;2022-07-05T06:42:54;23.70;43.80
8103;DHT22;4094;49.948;11.574;2022-07-05T06:45:30;23.80;43.80
8103;DHT22;4094;49.948;11.574;2022-07-05T06:48:01;23.90;43.90
8103;DHT22;4094;49.948;11.574;2022-07-05T06:50:32;24.00;43.80
8103;DHT22;4094;49.948;11.574;2022-07-05T06:53:03;24.10;43.40
8103;DHT22;4094;49.948;11.574;2022-07-05T06:55:33;24.10;43.30
8103;DHT22;4094;49.948;11.574;2022-07-05T06:58:04;24.20;43.00
8103;DHT22;4094;49.948;11.574;2022-07-05T07:00:42;24.30;43.00
8103;DHT22;4094;49.948;11.574;2022-07-05T07:03:31;24.40;43.30
8103;DHT22;4094;49.948;11.574;2022-07-05T07:06:20;24.50;42.80
8103;DHT22;4094;49.948;11.574;2022-07-05T07:08:49;24.60;42.30
8103;DHT22;4094;49.948;11.574;2022-07-05T07:11:36;24.70;42.50
8103;DHT22;4094;49.948;11.574;2022-07-05T07:14:05;24.80;42.30
8103;DHT22;4094;49.948;11.574;2022-07-05T07:16:34;24.80;42.30
8103;DHT22;4094;49.948;11.574;2022-07-05T07:19:03;24.90;42.50
8103;DHT22;4094;49.948;11.574;2022-07-05T07:21:40;25.00;41.90
8103;DHT22;4094;49.948;11.574;2022-07-05T07:24:09;25.00;41.50
8103;DHT22;4094;49.948;11.574;2022-07-05T07:26:40;25.10;41.60
8103;DHT22;4094;49.948;11.574;2022-07-05T07:29:27;25.20;40.40
8103;DHT22;4094;49.948;11.574;2022-07-05T07:31:57;25.20;41.20
8103;DHT22;4094;49.948;11.574;2022-07-05T07:34:27;25.30;41.20
8103;DHT22;4094;49.948;11.574;2022-07-05T07:36:57;25.40;41.20
8103;DHT22;4094;49.948;11.574;2022-07-05T07:39:26;25.40;40.90
8103;DHT22;4094;49.948;11.574;2022-07-05T07:41:56;25.50;40.90
8103;DHT22;4094;49.948;11.574;2022-07-05T07:44:25;25.60;41.20
8103;DHT22;4094;49.948;11.574;2022-07-05T07:46:54;25.70;41.10
8103;DHT22;4094;49.948;11.574;2022-07-05T07:49:23;25.80;41.10
8103;DHT22;4094;49.948;11.574;2022-07-05T07:51:52;25.90;41.50
8103;DHT22;4094;49.948;11.574;2022-07-05T07:54:21;26.00;40.90
8103;DHT22;4094;49.948;11.574;2022-07-05T07:56:49;26.00;40.20
8103;DHT22;4094;49.948;11.574;2022-07-05T07:59:20;26.10;40.40
8103;DHT22;4094;49.948;11.574;2022-07-05T08:01:49;26.20;40.10
8103;DHT22;4094;49.948;11.574;2022-07-05T08:04:19;26.30;40.30
8103;DHT22;4094;49.948;11.574;2022-07-05T08:06:48;26.30;40.10
8103;DHT22;4094;49.948;11.574;2022-07-05T08:09:17;26.40;40.20
8103;DHT22;4094;49.948;11.574;2022-07-05T08:11:47;26.50;40.30
8103;DHT22;4094;49.948;11.574;2022-07-05T08:14:20;26.60;39.80
8103;DHT22;4094;49.948;11.574;2022-07-05T08:16:50;26.70;39.50
8103;DHT22;4094;49.948;11.574;2022-07-05T08:19:20;26.70;38.20
8103;DHT22;4094;49.948;11.574;2022-07-05T08:22:07;26.70;38.50
8103;DHT22;4094;49.948;11.574;2022-07-05T08:24:38;26.80;38.80
8103;DHT22;4094;49.948;11.574;2022-07-05T08:27:08;26.80;37.70
8103;DHT22;4094;49.948;11.574;2022-07-05T08:29:39;26.90;38.00
8103;DHT22;4094;49.948;11.574;2022-07-05T08:32:09;26.90;38.30
8103;DHT22;4094;49.948;11.574;2022-07-05T08:34:38;27.00;37.90
8103;DHT22;4094;49.948;11.574;2022-07-05T08:37:08;27.00;37.50
8103;DHT22;4094;49.948;11.574;2022-07-05T08:39:42;27.10;36.90
8103;DHT22;4094;49.948;11.574;2022-07-05T08:42:12;27.20;36.70
8103;DHT22;4094;49.948;11.574;2022-07-05T08:44:44;27.20;36.40
8103;DHT22;4094;49.948;11.574;2022-07-05T08:47:15;27.30;36.20
8103;DHT22;4094;49.948;11.574;2022-07-05T08:49:47;27.30;36.00
8103;DHT22;4094;49.948;11.574;2022-07-05T08:52:19;27.30;36.00
8103;DHT22;4094;49.948;11.574;2022-07-05T08:54:51;27.40;36.30
8103;DHT22;4094;49.948;11.574;2022-07-05T08:57:21;27.50;36.30
8103;DHT22;4094;49.948;11.574;2022-07-05T08:59:54;27.50;36.30
8103;DHT22;4094;49.948;11.574;2022-07-05T09:02:29;27.60;35.70
8103;DHT22;4094;49.948;11.574;2022-07-05T09:05:00;27.60;35.30
8103;DHT22;4094;49.948;11.574;2022-07-05T09:07:32;27.70;35.70
8103;DHT22;4094;49.948;11.574;2022-07-05T09:10:05;27.80;35.30
8103;DHT22;4094;49.948;11.574;2022-07-05T09:12:34;27.90;34.80
8103;DHT22;4094;49.948;11.574;2022-07-05T09:15:07;27.90;34.40
8103;DHT22;4094;49.948;11.574;2022-07-05T09:17:42;27.90;33.30
8103;DHT22;4094;49.948;11.574;2022-07-05T09:20:12;28.00;32.70
8103;DHT22;4094;49.948;11.574;2022-07-05T09:22:44;27.90;31.70
8103;DHT22;4094;49.948;11.574;2022-07-05T09:25:18;27.90;32.30
8103;DHT22;4094;49.948;11.574;2022-07-05T09:27:49;28.00;32.70
8103;DHT22;4094;49.948;11.574;2022-07-05T09:30:29;27.90;32.10
8103;DHT22;4094;49.948;11.574;2022-07-05T09:33:05;27.90;32.70
8103;DHT22;4094;49.948;11.574;2022-07-05T09:35:36;28.00;33.20
8103;DHT22;4094;49.948;11.574;2022-07-05T09:38:17;28.00;32.70
8103;DHT22;4094;49.948;11.574;2022-07-05T09:40:50;28.00;32.80
8103;DHT22;4094;49.948;11.574;2022-07-05T09:43:20;28.00;33.00
8103;DHT22;4094;49.948;11.574;2022-07-05T09:45:58;28.00;33.00
8103;DHT22;4094;49.948;11.574;2022-07-05T09:48:28;28.00;32.70
8103;DHT22;4094;49.948;11.574;2022-07-05T09:51:10;28.00;32.80
8103;DHT22;4094;49.948;11.574;2022-07-05T09:54:00;28.10;33.30
8103;DHT22;4094;49.948;11.574;2022-07-05T09:56:46;28.10;33.00
8103;DHT22;4094;49.948;11.574;2022-07-05T09:59:18;28.20;33.40
8103;DHT22;4094;49.948;11.574;2022-07-05T10:01:51;28.20;33.20
8103;DHT22;4094;49.948;11.574;2022-07-05T10:04:20;28.30;32.80
8103;DHT22;4094;49.948;11.574;2022-07-05T10:06:49;28.30;32.60
8103;DHT22;4094;49.948;11.574;2022-07-05T10:09:19;28.30;32.10
8103;DHT22;4094;49.948;11.574;2022-07-05T10:11:49;28.40;32.90
8103;DHT22;4094;49.948;11.574;2022-07-05T10:14:21;28.40;32.60
8103;DHT22;4094;49.948;11.574;2022-07-05T10:16:59;28.40;32.40
8103;DHT22;4094;49.948;11.574;2022-07-05T10:19:32;28.40;31.90
8103;DHT22;4094;49.948;11.574;2022-07-05T10:22:04;28.40;31.10
8103;DHT22;4094;49.948;11.574;2022-07-05T10:24:45;28.40;31.30
8103;DHT22;4094;49.948;11.574;2022-07-05T10:27:17;28.40;32.00
8103;DHT22;4094;49.948;11.574;2022-07-05T10:29:48;28.40;32.00
8103;DHT22;4094;49.948;11.574;2022-07-05T10:32:19;28.50;32.20
8103;DHT22;4094;49.948;11.574;2022-07-05T10:34:51;28.50;32.20
8103;DHT22;4094;49.948;11.574;2022-07-05T10:37:26;28.50;32.50
8103;DHT22;4094;49.948;11.574;2022-07-05T10:39:58;28.50;33.00
8103;DHT22;4094;49.948;11.574;2022-07-05T10:42:31;28.60;32.90
8103;DHT22;4094;49.948;11.574;2022-07-05T10:45:01;28.60;32.70
8103;DHT22;4094;49.948;11.574;2022-07-05T10:47:32;28.70;32.60
8103;DHT22;4094;49.948;11.574;2022-07-05T10:50:04;28.80;32.60
8103;DHT22;4094;49.948;11.574;2022-07-05T10:52:34;28.80;32.10
8103;DHT22;4094;49.948;11.574;2022-07-05T10:55:22;28.90;32.20
8103;DHT22;4094;49.948;11.574;2022-07-05T10:58:26;28.90;32.50
8103;DHT22;4094;49.948;11.574;2022-07-05T11:01:31;29.00;32.40
8103;DHT22;4094;49.948;11.574;2022-07-05T11:07:03;29.00;30.80
8103;DHT22;4094;49.948;11.574;2022-07-05T11:09:33;29.00;31.10
8103;DHT22;4094;49.948;11.574;2022-07-05T11:12:04;29.00;30.80
8103;DHT22;4094;49.948;11.574;2022-07-05T11:15:07;29.00;31.50
8103;DHT22;4094;49.948;11.574;2022-07-05T11:17:38;29.00;31.70
8103;DHT22;4094;49.948;11.574;2022-07-05T11:20:30;29.00;31.10
8103;DHT22;4094;49.948;11.574;2022-07-05T11:23:10;29.00;30.70
8103;DHT22;4094;49.948;11.574;2022-07-05T11:25:44;29.00;30.40
8103;DHT22;4094;49.948;11.574;2022-07-05T11:28:18;29.00;30.20
8103;DHT22;4094;49.948;11.574;2022-07-05T11:30:56;28.90;31.10
8103;DHT22;4094;49.948;11.574;2022-07-05T11:33:29;28.90;31.00
8103;DHT22;4094;49.948;11.574;2022-07-05T11:36:00;28.90;31.30
8103;DHT22;4094;49.948;11.574;2022-07-05T11:38:30;28.90;31.40
8103;DHT22;4094;49.948;11.574;2022-07-05T11:41:19;29.00;31.00
8103;DHT22;4094;49.948;11.574;2022-07-05T11:43:55;28.90;30.40
8103;DHT22;4094;49.948;11.574;2022-07-05T11:46:25;28.90;30.70
8103;DHT22;4094;49.948;11.574;2022-07-05T11:49:22;28.90;30.50
8103;DHT22;4094;49.948;11.574;2022-07-05T11:51:57;28.90;30.80
8103;DHT22;4094;49.948;11.574;2022-07-05T11:54:28;28.80;31.40
8103;DHT22;4094;49.948;11.574;2022-07-05T11:56:59;28.80;31.40
8103;DHT22;4094;49.948;11.574;2022-07-05T11:59:29;28.80;31.40
8103;DHT22;4094;49.948;11.574;2022-07-05T12:01:58;28.90;31.10
8103;DHT22;4094;49.948;11.574;2022-07-05T12:04:28;28.90;30.80
8103;DHT22;4094;49.948;11.574;2022-07-05T12:06:59;28.90;31.00
8103;DHT22;4094;49.948;11.574;2022-07-05T12:09:30;29.00;30.90
8103;DHT22;4094;49.948;11.574;2022-07-05T12:12:22;29.10;31.70
8103;DHT22;4094;49.948;11.574;2022-07-05T12:15:13;29.20;31.20
8103;DHT22;4094;49.948;11.574;2022-07-05T12:17:44;29.40;30.20
8103;DHT22;4094;49.948;11.574;2022-07-05T12:20:15;29.50;31.20
8103;DHT22;4094;49.948;11.574;2022-07-05T12:22:50;29.60;30.80
8103;DHT22;4094;49.948;11.574;2022-07-05T12:25:22;29.70;30.30
8103;DHT22;4094;49.948;11.574;2022-07-05T12:27:54;29.80;31.10
8103;DHT22;4094;49.948;11.574;2022-07-05T12:30:24;29.90;30.80
8103;DHT22;4094;49.948;11.574;2022-07-05T12:32:54;30.10;30.60
8103;DHT22;4094;49.948;11.574;2022-07-05T12:35:33;30.20;30.40
8103;DHT22;4094;49.948;11.574;2022-07-05T12:38:06;30.20;30.30
8103;DHT22;4094;49.948;11.574;2022-07-05T12:40:38;30.30;30.50
8103;DHT22;4094;49.948;11.574;2022-07-05T12:43:09;30.40;30.20
8103;DHT22;4094;49.948;11.574;2022-07-05T12:45:40;30.40;29.80
8103;DHT22;4094;49.948;11.574;2022-07-05T12:48:10;30.40;30.00
8103;DHT22;4094;49.948;11.574;2022-07-05T12:50:48;30.40;29.70
8103;DHT22;4094;49.948;11.574;2022-07-05T12:53:47;30.40;29.90
8103;DHT22;4094;49.948;11.574;2022-07-05T12:56:35;30.40;29.60
8103;DHT22;4094;49.948;11.574;2022-07-05T12:59:56;30.40;29.20
8103;DHT22;4094;49.948;11.574;2022-07-05T13:02:36;30.50;29.80
8103;DHT22;4094;49.948;11.574;2022-07-05T13:05:07;30.60;29.40
8103;DHT22;4094;49.948;11.574;2022-07-05T13:07:41;30.60;29.10
8103;DHT22;4094;49.948;11.574;2022-07-05T13:10:23;30.70;29.20
8103;DHT22;4094;49.948;11.574;2022-07-05T13:12:52;30.70;29.40
8103;DHT22;4094;49.948;11.574;2022-07-05T13:15:21;30.80;29.50
8103;DHT22;4094;49.948;11.574;2022-07-05T13:17:51;30.80;29.50
8103;DHT22;4094;49.948;11.574;2022-07-05T13:20:21;30.90;29.40
8103;DHT22;4094;49.948;11.574;2022-07-05T13:22:51;31.00;29.70
8103;DHT22;4094;49.948;11.574;2022-07-05T13:25:21;31.00;29.10
8103;DHT22;4094;49.948;11.574;2022-07-05T13:27:50;31.10;29.30
8103;DHT22;4094;49.948;11.574;2022-07-05T13:30:21;31.20;29.40
8103;DHT22;4094;49.948;11.574;2022-07-05T13:32:50;31.30;28.90
8103;DHT22;4094;49.948;11.574;2022-07-05T13:35:19;31.30;29.10
8103;DHT22;4094;49.948;11.574;2022-07-05T13:37:48;31.40;29.20
8103;DHT22;4094;49.948;11.574;2022-07-05T13:40:17;31.50;28.90
8103;DHT22;4094;49.948;11.574;2022-07-05T13:42:48;31.60;28.80
8103;DHT22;4094;49.948;11.574;2022-07-05T13:45:17;31.60;28.50
8103;DHT22;4094;49.948;11.574;2022-07-05T13:47:50;31.70;28.30
8103;DHT22;4094;49.948;11.574;2022-07-05T13:50:20;31.80;28.40
8103;DHT22;4094;49.948;11.574;2022-07-05T13:53:02;31.80;28.30
8103;DHT22;4094;49.948;11.574;2022-07-05T13:55:31;31.80;28.30
8103;DHT22;4094;49.948;11.574;2022-07-05T13:58:02;31.80;28.20
8103;DHT22;4094;49.948;11.574;2022-07-05T14:00:31;31.80;28.30
8103;DHT22;4094;49.948;11.574;2022-07-05T14:03:00;31.90;28.20
8103;DHT22;4094;49.948;11.574;2022-07-05T14:05:33;31.90;28.20
8103;DHT22;4094;49.948;11.574;2022-07-05T14:08:03;31.90;28.00
8103;DHT22;4094;49.948;11.574;2022-07-05T14:10:33;31.90;28.50
8103;DHT22;4094;49.948;11.574;2022-07-05T14:13:03;31.80;28.30
8103;DHT22;4094;49.948;11.574;2022-07-05T14:15:33;31.80;28.30
8103;DHT22;4094;49.948;11.574;2022-07-05T14:18:02;31.70;28.60
8103;DHT22;4094;49.948;11.574;2022-07-05T14:20:31;31.70;28.50
8103;DHT22;4094;49.948;11.574;2022-07-05T14:23:00;31.70;28.10
8103;DHT22;4094;49.948;11.574;2022-07-05T14:25:29;31.70;28.30
8103;DHT22;4094;49.948;11.574;2022-07-05T14:27:58;31.80;27.90
8103;DHT22;4094;49.948;11.574;2022-07-05T14:30:29;31.80;28.00
8103;DHT22;4094;49.948;11.574;2022-07-05T14:32:58;31.80;28.20
8103;DHT22;4094;49.948;11.574;2022-07-05T14:35:28;31.80;27.60
8103;DHT22;4094;49.948;11.574;2022-07-05T14:37:58;31.80;27.90
8103;DHT22;4094;49.948;11.574;2022-07-05T14:40:29;31.80;27.80
8103;DHT22;4094;49.948;11.574;2022-07-05T14:43:00;31.70;27.70
8103;DHT22;4094;49.948;11.574;2022-07-05T14:45:31;31.70;27.60
8103;DHT22;4094;49.948;11.574;2022-07-05T14:48:00;31.60;27.70
8103;DHT22;4094;49.948;11.574;2022-07-05T14:50:29;31.60;27.70
8103;DHT22;4094;49.948;11.574;2022-07-05T14:52:58;31.60;28.10
8103;DHT22;4094;49.948;11.574;2022-07-05T14:55:33;31.60;27.70
8103;DHT22;4094;49.948;11.574;2022-07-05T14:58:03;31.60;28.00
8103;DHT22;4094;49.948;11.574;2022-07-05T15:00:34;31.60;28.10
8103;DHT22;4094;49.948;11.574;2022-07-05T15:03:03;31.60;28.10
8103;DHT22;4094;49.948;11.574;2022-07-05T15:05:34;31.60;27.70
8103;DHT22;4094;49.948;11.574;2022-07-05T15:08:03;31.60;27.80
8103;DHT22;4094;49.948;11.574;2022-07-05T15:10:33;31.50;27.40
8103;DHT22;4094;49.948;11.574;2022-07-05T15:13:02;31.40;27.40
8103;DHT22;4094;49.948;11.574;2022-07-05T15:15:33;31.40;27.60
8103;DHT22;4094;49.948;11.574;2022-07-05T15:18:02;31.20;27.80
8103;DHT22;4094;49.948;11.574;2022-07-05T15:20:31;31.10;27.90
8103;DHT22;4094;49.948;11.574;2022-07-05T15:23:00;31.10;28.00
8103;DHT22;4094;49.948;11.574;2022-07-05T15:25:29;31.10;27.90
8103;DHT22;4094;49.948;11.574;2022-07-05T15:27:59;31.10;27.80
8103;DHT22;4094;49.948;11.574;2022-07-05T15:30:28;31.10;27.90
8103;DHT22;4094;49.948;11.574;2022-07-05T15:32:59;31.10;27.80
8103;DHT22;4094;49.948;11.574;2022-07-05T15:35:30;31.20;27.90
8103;DHT22;4094;49.948;11.574;2022-07-05T15:38:00;31.20;27.60
8103;DHT22;4094;49.948;11.574;2022-07-05T15:40:29;31.20;27.60
8103;DHT22;4094;49.948;11.574;2022-07-05T15:42:59;31.10;27.90
8103;DHT22;4094;49.948;11.574;2022-07-05T15:45:28;31.10;28.00
8103;DHT22;4094;49.948;11.574;2022-07-05T15:47:58;31.00;27.90
8103;DHT22;4094;49.948;11.574;2022-07-05T15:50:28;31.00;27.90
8103;DHT22;4094;49.948;11.574;2022-07-05T15:52:57;31.00;27.90
8103;DHT22;4094;49.948;11.574;2022-07-05T15:55:26;31.00;27.90
8103;DHT22;4094;49.948;11.574;2022-07-05T15:57:55;30.90;27.90
8103;DHT22;4094;49.948;11.574;2022-07-05T16:00:24;30.80;28.00
8103;DHT22;4094;49.948;11.574;2022-07-05T16:02:54;30.80;28.10
8103;DHT22;4094;49.948;11.574;2022-07-05T16:05:29;30.70;27.90
8103;DHT22;4094;49.948;11.574;2022-07-05T16:07:59;30.60;27.90
8103;DHT22;4094;49.948;11.574;2022-07-05T16:10:28;30.50;27.90
8103;DHT22;4094;49.948;11.574;2022-07-05T16:13:01;30.50;28.10
8103;DHT22;4094;49.948;11.574;2022-07-05T16:15:31;30.40;28.00
8103;DHT22;4094;49.948;11.574;2022-07-05T16:18:18;30.30;27.90